This demonstration page uses our WeatherBlox Daily Observations layout. Learn more.

38.89511, -77.03637

Hourly Observations for February 13, 2015

Temp ( °F °C ) Dew Point ( °F °C ) Humidity (%) Winds ( mph kmh ) Pressure ( in mb ) Visibility ( mi km ) Precip ( " mm )
12:52 am 00:52 Mostly Clear 19 -7.2 -2 -18.9 39 39 NNW 24 39 30.18 1022 10 16.0934 0 0
1:52 am 01:52 Mostly Clear 18 -7.8 -3 -19.4 39 39 NNW 18 30 30.2 1023 10 16.0934 0 0
2:52 am 02:52 Mostly Clear 17 -8.3 -3 -19.4 41 41 NW 20 31 30.21 1023 10 16.0934 0 0
3:52 am 03:52 Mostly Clear 16 -8.9 -4 -20 41 41 NW 20 31 30.24 1024 10 16.0934 0 0
4:52 am 04:52 Clear 16 -8.9 -4 -20 41 41 NNW 17 28 30.25 1024 10 16.0934 0 0
5:52 am 05:52 Mostly Clear 15 -9.4 -4 -20 42 42 NNW 21 33 30.28 1025 10 16.0934 0 0
6:52 am 06:52 Partly Cloudy 15 -9.4 -4 -20 42 42 NW 12 19 30.29 1026 10 16.0934 0 0
7:52 am 07:52 Partly Cloudy 16 -8.9 -4 -20 41 41 NW 17 28 30.31 1026 10 16.0934 0 0
8:52 am 08:52 Partly Cloudy 18 -7.8 -3 -19.4 39 39 NW 15 24 30.32 1027 10 16.0934 0 0
9:52 am 09:52 Mostly Sunny 20 -6.7 -3 -19.4 36 36 NNW 22 35 30.33 1027 10 16.0934 0 0
10:52 am 10:52 Mostly Sunny 22 -5.6 -2 -18.9 35 35 N 17 28 30.32 1027 10 16.0934 0 0
11:52 am 11:52 Mostly Sunny 24 -4.4 -1 -18.3 33 33 N 21 33 30.3 1026 10 16.0934 0 0
12:52 pm 12:52 Mostly Sunny 26 -3.3 -1 -18.3 31 31 NW 12 19 30.27 1025 10 16.0934 0 0
1:52 pm 13:52 Mostly Sunny 29 -1.7 -1 -18.3 27 27 W 10 17 30.23 1024 10 16.0934 0 0
2:52 pm 14:52 Mostly Sunny 29 -1.7 -3 -19.4 25 25 NW 13 20 30.22 1023 10 16.0934 0 0
3:52 pm 15:52 Partly Cloudy 30 -1.1 -3 -19.4 24 24 W 8 13 30.21 1023 10 16.0934 0 0
4:52 pm 16:52 Partly Cloudy 29 -1.7 -3 -19.4 25 25 W 8 13 30.2 1023 10 16.0934 0 0
5:52 pm 17:52 Mostly Clear 28 -2.2 -3 -19.4 26 26 NW 8 13 30.2 1023 10 16.0934 0 0
6:52 pm 18:52 Clear 26 -3.3 -2 -18.9 29 29 SW 3 6 30.21 1023 10 16.0934 0 0
7:52 pm 19:52 Clear 27 -2.8 -2 -18.9 28 28 S 3 6 30.21 1023 10 16.0934 0 0
8:52 pm 20:52 Clear 27 -2.8 2 -16.7 34 34 S 3 6 30.2 1023 10 16.0934 0 0
9:52 pm 21:52 Clear 25 -3.9 6 -14.4 44 44 SSW 7 11 30.2 1023 10 16.0934 0 0
10:23 pm 22:23 Mostly Clear 25 -4 3 -16 39 39 S 5 7 30.18 1022 10 16.0934 0 0
10:52 pm 22:52 Mostly Cloudy 25 -3.9 6 -14.4 44 44 SSE 6 9 30.18 1022 10 16.0934 0 0
11:52 pm 23:52 Mostly Cloudy 25 -3.9 4 -15.6 40 40 SSE 6 9 30.15 1021 10 16.0934 0 0

Powered by AerisWeather